Kalispell, Montana
Current Conditions -  °F | °C
As of 8:55 PM on Friday 24 Oct 2014 (Local Time) from KGPI Reporting Station
Clear Clear  
Wind Chill:   Ceiling: Unl
Heat Index:   Visibility: 10mi
Dew Point:   Wind: 3mph
Humidity: 89%   Direction: 300°WNW
Pressure: 30.07"   Gusts: NA
Location:  48.2°N, 114.31°W
Report Text: KGPI 250255Z 30003KT 10SM CLR 06/04 A3007 RMK AO2 SLP196 T00610044 56008
Loading
Personal Weather Stations






























Interactive Weather Map
Tropical Storm Tracking
New forecast layout! Learn more

10-Day Weather Forecast

Advertisements
Track Severe Weather on mobile